Time;durP1;ratioP1;P1;durP2;ratioP2;P2;SDS_P1;SDS_P2;PMS_P1;PMS_P2;Temp;Humidity;BMP_temperature;BMP_pressure;BME280_temperature;BME280_humidity;BME280_pressure;Samples;Min_cycle;Max_cycle;Signal;HPM_P1;HPM_P2
2021/12/31 00:00:00;;;;;;;20.32;13.70;;;21.40;78.00;;;;;;1839421;77;21085;-80
2021/12/31 00:02:31;;;;;;;20.90;13.75;;;21.40;77.90;;;;;;1835883;77;21145;-80
2021/12/31 00:05:02;;;;;;;18.57;12.85;;;21.40;77.90;;;;;;1822957;77;21722;-81
2021/12/31 00:07:33;;;;;;;21.70;13.68;;;21.40;77.90;;;;;;1833510;77;21675;-80
2021/12/31 00:10:04;;;;;;;23.70;15.20;;;21.40;78.00;;;;;;1839922;77;21171;-81
2021/12/31 00:12:36;;;;;;;23.70;14.78;;;21.40;78.10;;;;;;1836691;77;21186;-80
2021/12/31 00:15:07;;;;;;;29.67;17.12;;;21.50;77.90;;;;;;1831291;77;21163;-81
2021/12/31 00:17:39;;;;;;;22.10;15.45;;;21.50;77.90;;;;;;1824674;78;21168;-81
2021/12/31 00:20:15;;;;;;;21.17;13.88;;;21.50;77.90;;;;;;1834105;77;21219;-80
2021/12/31 00:25:18;;;;;;;14.87;10.85;;;21.60;78.60;;;;;;1810806;77;21616;-80
2021/12/31 00:27:48;;;;;;;10.25;7.78;;;21.60;77.60;;;;;;1823934;77;21206;-80
2021/12/31 00:30:20;;;;;;;12.05;7.83;;;21.60;77.40;;;;;;1814732;78;21143;-80
2021/12/31 00:32:51;;;;;;;9.13;6.50;;;21.70;77.50;;;;;;1826420;78;21131;-81
2021/12/31 00:35:22;;;;;;;13.20;7.00;;;21.70;77.20;;;;;;1829084;77;21120;-81
2021/12/31 00:37:53;;;;;;;10.53;6.25;;;21.80;77.30;;;;;;1841660;77;21054;-80
2021/12/31 00:40:23;;;;;;;8.40;5.70;;;21.80;77.30;;;;;;1842840;77;21089;-79
2021/12/31 00:42:55;;;;;;;11.20;6.58;;;21.90;77.30;;;;;;1842068;77;21207;-80
2021/12/31 00:45:27;;;;;;;10.38;6.42;;;21.90;77.00;;;;;;1861528;76;21148;-80
2021/12/31 00:47:57;;;;;;;13.05;7.60;;;21.90;77.10;;;;;;1863314;76;21167;-84
2021/12/31 00:50:31;;;;;;;13.68;7.62;;;21.90;76.70;;;;;;1854149;76;21163;-82
2021/12/31 00:53:02;;;;;;;13.43;7.80;;;22.00;76.70;;;;;;1848325;75;21171;-82
2021/12/31 00:55:33;;;;;;;12.65;7.03;;;22.00;76.50;;;;;;1858695;76;21655;-82
2021/12/31 00:58:06;;;;;;;10.35;6.55;;;22.10;76.10;;;;;;1855469;76;21226;-82
2021/12/31 01:00:37;;;;;;;11.93;6.10;;;22.10;76.20;;;;;;1850476;76;21155;-82
2021/12/31 01:03:08;;;;;;;9.95;5.40;;;22.10;75.80;;;;;;1851116;76;21132;-85
2021/12/31 01:05:39;;;;;;;10.53;5.47;;;22.20;75.50;;;;;;1846079;76;21155;-82
2021/12/31 01:08:09;;;;;;;9.78;5.78;;;22.30;75.50;;;;;;1848294;76;21685;-83
2021/12/31 01:10:40;;;;;;;10.40;5.60;;;22.30;75.30;;;;;;1850099;76;21127;-82
2021/12/31 01:13:18;;;;;;;10.65;6.30;;;22.30;75.20;;;;;;1840850;76;21171;-82
2021/12/31 01:15:46;;;;;;;9.75;5.60;;;22.30;75.10;;;;;;1842470;76;21228;-81
2021/12/31 01:18:20;;;;;;;11.18;4.97;;;22.30;75.30;;;;;;1846039;76;21077;-82
2021/12/31 01:20:47;;;;;;;7.58;4.53;;;22.30;75.10;;;;;;1847189;76;21139;-81
2021/12/31 01:23:18;;;;;;;9.88;4.97;;;22.40;75.20;;;;;;1847932;77;21716;-81
2021/12/31 01:25:49;;;;;;;8.40;4.67;;;22.40;75.10;;;;;;1861957;76;21123;-82
2021/12/31 01:28:22;;;;;;;8.48;5.08;;;22.40;75.00;;;;;;1865555;76;21162;-82
2021/12/31 01:30:52;;;;;;;8.00;5.33;;;22.50;75.00;;;;;;1853442;76;21127;-82
2021/12/31 01:33:23;;;;;;;8.60;5.20;;;22.50;75.00;;;;;;1855843;76;21084;-81
2021/12/31 01:35:53;;;;;;;7.75;4.92;;;22.50;74.80;;;;;;1852784;77;21153;-82
2021/12/31 01:38:24;;;;;;;9.13;5.25;;;22.50;75.00;;;;;;1858075;76;21714;-82
2021/12/31 01:40:55;;;;;;;7.33;4.65;;;22.50;76.00;;;;;;1847967;76;21142;-81
2021/12/31 01:43:26;;;;;;;8.25;4.87;;;22.60;75.10;;;;;;1849278;76;21659;-81
2021/12/31 01:46:00;;;;;;;10.95;4.62;;;22.60;74.90;;;;;;1862611;76;21159;-83
2021/12/31 01:48:36;;;;;;;7.70;4.58;;;22.70;74.80;;;;;;1846579;77;21090;-81
2021/12/31 01:51:02;;;;;;;6.22;3.95;;;22.80;74.50;;;;;;1843155;77;21163;-82
2021/12/31 01:53:33;;;;;;;9.38;4.95;;;22.80;74.20;;;;;;1832132;77;21128;-82
2021/12/31 01:56:04;;;;;;;9.93;4.45;;;22.90;74.20;;;;;;1820928;77;21147;-81
2021/12/31 01:58:35;;;;;;;9.18;4.50;;;22.90;74.20;;;;;;1838750;77;21633;-82
2021/12/31 02:01:06;;;;;;;8.88;5.33;;;23.00;74.00;;;;;;1831157;77;21494;-82
2021/12/31 02:03:38;;;;;;;10.70;5.55;;;23.00;73.70;;;;;;1843895;77;21081;-82
2021/12/31 02:06:09;;;;;;;8.45;5.20;;;23.00;73.60;;;;;;1842172;77;21113;-83
2021/12/31 02:08:40;;;;;;;11.03;5.53;;;23.00;73.60;;;;;;1824222;78;21109;-82
2021/12/31 02:11:10;;;;;;;9.03;5.62;;;23.00;73.70;;;;;;1837362;77;21253;-82
2021/12/31 02:13:41;;;;;;;8.43;5.22;;;23.10;73.80;;;;;;1828447;77;21093;-81
2021/12/31 02:16:12;;;;;;;7.83;4.90;;;23.10;73.60;;;;;;1830964;77;21652;-82
2021/12/31 02:18:44;;;;;;;10.23;5.08;;;23.20;73.60;;;;;;1826172;77;21081;-82
2021/12/31 02:21:15;;;;;;;8.70;5.15;;;23.20;73.40;;;;;;1829905;77;21058;-83
2021/12/31 02:23:47;;;;;;;8.18;4.60;;;23.30;73.40;;;;;;1832599;77;21737;-83
2021/12/31 02:26:18;;;;;;;8.28;4.62;;;23.30;73.10;;;;;;1828883;77;21640;-83
2021/12/31 02:28:49;;;;;;;7.70;4.45;;;23.30;73.00;;;;;;1833434;77;21198;-82
2021/12/31 02:31:19;;;;;;;8.50;4.33;;;23.40;73.00;;;;;;1827473;77;21652;-83
2021/12/31 02:33:50;;;;;;;7.25;4.08;;;23.40;72.70;;;;;;1829143;77;21156;-82
2021/12/31 02:36:21;;;;;;;9.03;4.60;;;23.50;72.70;;;;;;1843759;77;21226;-81
2021/12/31 02:38:52;;;;;;;9.00;3.77;;;23.60;72.80;;;;;;1833801;77;21186;-81
2021/12/31 02:41:22;;;;;;;8.13;4.40;;;23.70;72.50;;;;;;1834010;78;21156;-81
2021/12/31 02:43:53;;;;;;;5.78;4.10;;;23.80;72.00;;;;;;1820192;79;21136;-82
2021/12/31 02:46:24;;;;;;;5.12;3.80;;;23.80;71.80;;;;;;1831472;77;21596;-81
2021/12/31 02:48:57;;;;;;;9.25;4.25;;;23.80;71.80;;;;;;1836958;77;21184;-83
2021/12/31 02:51:29;;;;;;;7.85;3.98;;;23.90;71.60;;;;;;1839076;77;21576;-81
2021/12/31 02:54:03;;;;;;;6.97;3.80;;;23.90;71.80;;;;;;1833144;77;21124;-81
2021/12/31 02:56:33;;;;;;;5.72;3.37;;;24.00;71.70;;;;;;1832651;77;21136;-82
2021/12/31 02:59:04;;;;;;;6.53;3.67;;;24.00;71.10;;;;;;1838034;77;21135;-81
2021/12/31 03:01:35;;;;;;;8.43;3.87;;;24.10;71.00;;;;;;1832878;77;21136;-82
2021/12/31 03:04:07;;;;;;;8.93;3.45;;;24.10;71.10;;;;;;1834144;77;21128;-81
2021/12/31 03:06:39;;;;;;;7.70;2.83;;;24.20;70.50;;;;;;1836524;77;21138;-82
2021/12/31 03:09:11;;;;;;;7.90;3.00;;;24.20;70.30;;;;;;1829472;77;21112;-82
2021/12/31 03:11:42;;;;;;;6.33;2.67;;;24.30;70.10;;;;;;1832203;77;21258;-80
2021/12/31 03:14:14;;;;;;;5.25;2.27;;;24.40;69.50;;;;;;1839795;77;21175;-81
2021/12/31 03:16:45;;;;;;;6.75;2.77;;;24.50;69.30;;;;;;1829550;77;21702;-80
2021/12/31 03:19:19;;;;;;;5.05;2.77;;;24.60;69.20;;;;;;1833636;77;21144;-80
2021/12/31 03:22:18;;;;;;;6.17;2.47;;;24.60;68.40;;;;;;2024978;69;22235;-83
2021/12/31 03:24:49;;;;;;;8.35;2.70;;;24.70;68.20;;;;;;1964698;72;21626;-82
2021/12/31 03:27:19;;;;;;;9.15;3.05;;;24.80;67.40;;;;;;1978133;70;21159;-82
2021/12/31 03:29:50;;;;;;;3.75;2.62;;;24.80;66.70;;;;;;1973427;71;21168;-83
2021/12/31 03:32:21;;;;;;;5.62;3.00;;;24.90;67.20;;;;;;1971805;71;22140;-81
2021/12/31 03:34:51;;;;;;;4.58;2.47;;;24.90;67.30;;;;;;1972232;72;21128;-81
2021/12/31 03:37:22;;;;;;;10.30;2.87;;;25.00;67.50;;;;;;1975617;71;21163;-83
2021/12/31 03:39:53;;;;;;;4.87;2.90;;;25.20;66.70;;;;;;1974463;71;21182;-81
2021/12/31 03:42:25;;;;;;;4.58;2.98;;;25.20;66.60;;;;;;1932195;74;21153;-82
2021/12/31 03:44:56;;;;;;;4.78;2.77;;;25.30;66.70;;;;;;1973389;71;21224;-82
2021/12/31 03:47:27;;;;;;;4.83;3.27;;;25.30;66.40;;;;;;1976385;72;21678;-83
2021/12/31 03:49:57;;;;;;;8.48;3.33;;;25.40;66.00;;;;;;1974539;71;21193;-82
2021/12/31 03:52:28;;;;;;;5.28;3.40;;;25.50;66.50;;;;;;1964203;72;21092;-82
2021/12/31 03:54:58;;;;;;;4.03;2.70;;;25.50;66.40;;;;;;1984244;71;21620;-81
2021/12/31 03:57:29;;;;;;;4.08;2.65;;;25.60;66.00;;;;;;2001339;70;21076;-82
2021/12/31 04:00:00;;;;;;;5.47;3.10;;;25.70;65.80;;;;;;1976447;71;21662;-82
2021/12/31 04:02:31;;;;;;;4.92;2.90;;;25.70;65.50;;;;;;1982189;70;21753;-83
2021/12/31 04:05:03;;;;;;;5.42;2.30;;;25.90;65.30;;;;;;1990168;71;21121;-81
2021/12/31 04:07:33;;;;;;;5.22;2.72;;;26.00;65.40;;;;;;1982041;70;21592;-82
2021/12/31 04:10:05;;;;;;;5.28;3.10;;;26.10;64.50;;;;;;1980415;71;21101;-83
2021/12/31 04:12:36;;;;;;;5.45;2.80;;;26.20;64.40;;;;;;1976354;71;21163;-82
2021/12/31 04:15:07;;;;;;;7.05;2.80;;;26.30;65.10;;;;;;1971307;71;21089;-83
2021/12/31 04:17:40;;;;;;;3.77;2.52;;;26.40;63.70;;;;;;1995963;70;21123;-83
2021/12/31 04:21:06;;;;;;;5.95;3.02;;;26.50;63.50;;;;;;1998393;70;21139;-83
2021/12/31 04:25:49;;;;;;;5.60;2.85;;;26.70;63.40;;;;;;1960304;72;21104;-82
2021/12/31 04:28:19;;;;;;;5.95;2.25;;;26.80;62.70;;;;;;1969677;71;21154;-82
2021/12/31 04:30:50;;;;;;;6.20;2.33;;;26.90;62.40;;;;;;1970364;71;21129;-84
2021/12/31 04:33:24;;;;;;;4.97;2.15;;;27.10;61.80;;;;;;1969745;71;21551;-81
2021/12/31 04:35:57;;;;;;;5.55;2.30;;;27.20;60.60;;;;;;1959996;71;21135;-82
2021/12/31 04:38:28;;;;;;;4.03;2.27;;;27.30;59.70;;;;;;1966960;71;21209;-82
2021/12/31 04:41:00;;;;;;;4.33;2.33;;;27.30;60.20;;;;;;1962982;71;21232;-82
2021/12/31 04:43:37;;;;;;;5.72;3.17;;;27.40;60.00;;;;;;1982652;71;21156;-82
2021/12/31 04:46:08;;;;;;;5.40;2.63;;;27.50;60.10;;;;;;1969819;71;21120;-82
2021/12/31 04:48:39;;;;;;;6.83;2.47;;;27.50;60.00;;;;;;1982449;71;21046;-83
2021/12/31 04:51:09;;;;;;;5.25;2.15;;;27.60;59.70;;;;;;1971002;71;21628;-81
2021/12/31 04:53:40;;;;;;;5.65;2.25;;;27.70;59.40;;;;;;1962086;71;21225;-83
2021/12/31 04:56:11;;;;;;;4.05;1.87;;;27.70;59.60;;;;;;1953446;71;21139;-82
2021/12/31 04:58:42;;;;;;;8.30;2.40;;;27.80;59.30;;;;;;1961594;72;21614;-82
2021/12/31 05:01:14;;;;;;;4.53;1.75;;;27.90;59.60;;;;;;1962939;71;21099;-82
2021/12/31 05:03:46;;;;;;;4.33;2.00;;;28.00;59.00;;;;;;1969686;71;21754;-83
2021/12/31 05:06:18;;;;;;;5.03;1.82;;;28.10;57.40;;;;;;1978248;71;21111;-81
2021/12/31 05:08:48;;;;;;;5.97;1.95;;;28.20;57.60;;;;;;1973841;71;21126;-82
2021/12/31 05:11:19;;;;;;;4.85;1.67;;;28.20;58.10;;;;;;1933439;72;21456;-83
2021/12/31 05:13:50;;;;;;;4.83;1.57;;;28.30;58.00;;;;;;1976201;71;22113;-83
2021/12/31 05:16:20;;;;;;;6.30;1.67;;;28.40;58.00;;;;;;1970922;71;21080;-82
2021/12/31 05:18:53;;;;;;;6.28;1.90;;;28.50;57.20;;;;;;1978543;71;21165;-81
2021/12/31 05:21:23;;;;;;;5.60;1.98;;;28.60;57.40;;;;;;1962540;71;21552;-83
2021/12/31 05:23:57;;;;;;;5.20;2.02;;;28.70;56.20;;;;;;1971036;72;21123;-81
2021/12/31 05:26:27;;;;;;;6.12;2.10;;;28.80;56.50;;;;;;1968940;71;21144;-83
2021/12/31 05:28:58;;;;;;;3.52;1.57;;;28.90;56.20;;;;;;1968197;71;21187;-82
2021/12/31 05:31:30;;;;;;;6.28;1.62;;;29.00;55.80;;;;;;1951367;72;21132;-83
2021/12/31 05:34:01;;;;;;;8.38;2.08;;;29.00;55.60;;;;;;1969773;72;21583;-81
2021/12/31 05:36:44;;;;;;;6.75;1.80;;;29.10;55.40;;;;;;1933292;73;21199;-84
2021/12/31 05:39:16;;;;;;;6.28;1.80;;;29.10;55.50;;;;;;1916322;73;21585;-83
2021/12/31 05:41:51;;;;;;;5.58;1.95;;;29.10;55.70;;;;;;1904716;72;21255;-83
2021/12/31 05:44:23;;;;;;;6.15;1.62;;;29.10;55.20;;;;;;1941314;72;21148;-83
2021/12/31 05:46:55;;;;;;;5.40;1.80;;;29.10;55.40;;;;;;1921687;72;21153;-83
2021/12/31 05:49:28;;;;;;;5.72;2.17;;;29.20;55.10;;;;;;1935329;72;21055;-81
2021/12/31 05:51:58;;;;;;;3.90;1.80;;;29.20;54.60;;;;;;1932706;72;21913;-83
2021/12/31 05:54:29;;;;;;;3.08;1.30;;;29.10;55.20;;;;;;1957388;72;21231;-83
2021/12/31 05:57:00;;;;;;;3.42;1.20;;;29.20;54.90;;;;;;1937240;72;21445;-83
2021/12/31 05:59:30;;;;;;;6.67;1.22;;;29.20;54.30;;;;;;1937926;72;21198;-84
2021/12/31 06:02:01;;;;;;;1.92;1.10;;;29.20;54.40;;;;;;1884499;74;21196;-82
2021/12/31 06:04:32;;;;;;;4.00;1.05;;;29.20;54.30;;;;;;1941822;72;21158;-84
2021/12/31 06:07:03;;;;;;;3.85;1.20;;;29.30;55.10;;;;;;1913430;74;21533;-84
2021/12/31 06:09:34;;;;;;;3.92;1.27;;;29.30;54.90;;;;;;1967883;72;21155;-82
2021/12/31 06:12:05;;;;;;;5.20;1.47;;;29.40;54.40;;;;;;1942325;72;21072;-84
2021/12/31 06:14:36;;;;;;;2.98;1.40;;;29.40;54.10;;;;;;1947666;72;21123;-83
2021/12/31 06:17:08;;;;;;;3.30;1.40;;;29.40;53.90;;;;;;1937164;72;21683;-83
2021/12/31 06:19:40;;;;;;;3.27;1.40;;;29.50;53.80;;;;;;1933307;72;21623;-83
2021/12/31 06:22:12;;;;;;;3.87;1.75;;;29.50;54.60;;;;;;1949219;72;21104;-83
2021/12/31 06:24:43;;;;;;;12.07;1.80;;;29.40;54.10;;;;;;1937688;72;21136;-84
2021/12/31 06:27:13;;;;;;;2.30;1.40;;;29.40;54.60;;;;;;1952214;72;21234;-83
2021/12/31 06:29:44;;;;;;;3.58;1.42;;;29.40;55.30;;;;;;1928907;72;21171;-83
2021/12/31 06:32:15;;;;;;;2.12;1.30;;;29.40;54.40;;;;;;1950774;72;21144;-84
2021/12/31 06:34:46;;;;;;;3.45;1.70;;;29.40;54.50;;;;;;1942989;72;21155;-84
2021/12/31 06:37:17;;;;;;;4.20;1.60;;;29.40;54.50;;;;;;1939409;72;21198;-83
2021/12/31 06:39:48;;;;;;;2.83;1.37;;;29.40;54.40;;;;;;1896661;74;21143;-83
2021/12/31 06:42:18;;;;;;;3.58;1.40;;;29.50;54.90;;;;;;1944328;72;21172;-83
2021/12/31 06:44:49;;;;;;;3.25;1.50;;;29.50;55.00;;;;;;1955111;72;21132;-84
2021/12/31 06:47:19;;;;;;;3.47;1.30;;;29.50;54.00;;;;;;1911229;74;21186;-83
2021/12/31 06:49:50;;;;;;;3.47;1.40;;;29.60;54.30;;;;;;1945902;72;21155;-83
2021/12/31 06:52:21;;;;;;;2.85;1.15;;;29.60;53.70;;;;;;1948941;72;21626;-82
2021/12/31 06:54:51;;;;;;;4.85;1.30;;;29.70;53.80;;;;;;1941986;72;21156;-84
2021/12/31 06:57:22;;;;;;;4.72;1.40;;;29.60;54.20;;;;;;1925802;72;21143;-83
2021/12/31 06:59:53;;;;;;;2.85;1.37;;;29.60;53.80;;;;;;1941530;72;21140;-83
2021/12/31 07:02:24;;;;;;;2.87;1.17;;;29.60;54.30;;;;;;1934551;72;21236;-83
2021/12/31 07:04:55;;;;;;;3.77;1.32;;;29.70;54.10;;;;;;1937632;72;21280;-83
2021/12/31 07:07:25;;;;;;;6.20;1.50;;;29.70;54.30;;;;;;1945042;72;21135;-83
2021/12/31 07:09:56;;;;;;;6.60;1.25;;;29.70;54.70;;;;;;1951589;72;21166;-81
2021/12/31 07:12:26;;;;;;;6.53;1.60;;;29.70;54.10;;;;;;1944892;72;21124;-85
2021/12/31 07:14:58;;;;;;;3.35;1.20;;;29.70;53.90;;;;;;1947061;72;21148;-83
2021/12/31 07:17:29;;;;;;;5.10;1.10;;;29.70;54.40;;;;;;1947942;72;21193;-83
2021/12/31 07:20:00;;;;;;;4.78;1.55;;;29.70;54.50;;;;;;1921421;73;21238;-83
2021/12/31 07:22:34;;;;;;;5.90;1.27;;;29.70;54.50;;;;;;1959365;72;21081;-82
2021/12/31 07:25:05;;;;;;;1.95;1.20;;;29.60;54.80;;;;;;1960966;72;21128;-84
2021/12/31 07:27:35;;;;;;;2.77;1.17;;;29.60;54.00;;;;;;1963175;72;21126;-81
2021/12/31 07:30:07;;;;;;;2.65;1.30;;;29.60;54.10;;;;;;1943918;72;21159;-84
2021/12/31 07:32:39;;;;;;;1.80;1.10;;;29.60;53.90;;;;;;1939088;72;21128;-84
2021/12/31 07:35:10;;;;;;;3.58;1.20;;;29.50;53.90;;;;;;1946808;72;21089;-84
2021/12/31 07:37:43;;;;;;;2.58;0.93;;;29.50;54.00;;;;;;1936043;72;21208;-85
2021/12/31 07:40:23;;;;;;;3.77;1.12;;;29.50;54.40;;;;;;1915006;72;21133;-84
2021/12/31 07:42:48;;;;;;;4.95;1.10;;;29.50;53.50;;;;;;1918440;73;21647;-84
2021/12/31 07:45:19;;;;;;;2.37;1.02;;;29.50;53.10;;;;;;1929585;72;21597;-85
2021/12/31 07:47:49;;;;;;;2.70;1.20;;;29.50;52.40;;;;;;1916356;72;21183;-83
2021/12/31 07:50:20;;;;;;;4.45;1.20;;;29.50;52.50;;;;;;1934056;72;21642;-83
2021/12/31 07:52:50;;;;;;;8.30;1.12;;;29.50;53.30;;;;;;1940229;72;21650;-84
2021/12/31 07:55:26;;;;;;;4.17;1.52;;;29.40;53.50;;;;;;1960414;72;21128;-83
2021/12/31 07:57:53;;;;;;;3.60;1.05;;;29.40;53.50;;;;;;1940156;72;21078;-83
2021/12/31 08:00:29;;;;;;;2.58;1.00;;;29.40;53.70;;;;;;1939730;73;21209;-83
2021/12/31 08:03:01;;;;;;;2.25;1.20;;;29.40;53.00;;;;;;1940505;73;21158;-84
2021/12/31 08:05:33;;;;;;;3.20;1.27;;;29.40;53.30;;;;;;1945028;72;21249;-83
2021/12/31 08:08:05;;;;;;;2.22;0.98;;;29.40;53.60;;;;;;1953082;72;21313;-82
2021/12/31 08:10:38;;;;;;;4.55;1.60;;;29.40;53.90;;;;;;1938337;72;21629;-85
2021/12/31 08:13:11;;;;;;;4.15;1.20;;;29.40;53.10;;;;;;1937977;72;21116;-82
2021/12/31 08:15:48;;;;;;;2.90;1.20;;;29.40;53.70;;;;;;1969761;72;21143;-84
2021/12/31 08:18:16;;;;;;;5.00;1.50;;;29.40;53.80;;;;;;1967126;72;21178;-83
2021/12/31 08:20:47;;;;;;;3.87;1.65;;;29.30;53.40;;;;;;1969320;72;21726;-84
2021/12/31 08:23:17;;;;;;;5.58;2.00;;;29.30;53.70;;;;;;1958103;73;21151;-84
2021/12/31 08:25:48;;;;;;;3.35;1.42;;;29.30;54.00;;;;;;1958847;72;21156;-84
2021/12/31 08:28:19;;;;;;;3.22;1.37;;;29.30;53.90;;;;;;1968882;73;21233;-85
2021/12/31 08:30:50;;;;;;;3.95;1.20;;;29.20;54.00;;;;;;1955798;72;21150;-86
2021/12/31 08:33:20;;;;;;;3.15;1.15;;;29.20;54.30;;;;;;1967943;73;21116;-84
2021/12/31 08:35:51;;;;;;;4.35;0.95;;;29.10;54.60;;;;;;1956142;72;21652;-83
2021/12/31 08:38:23;;;;;;;4.33;1.30;;;29.10;54.10;;;;;;1954947;72;21213;-83
2021/12/31 08:40:56;;;;;;;2.50;1.20;;;29.10;54.40;;;;;;1964616;73;21168;-83
2021/12/31 08:43:27;;;;;;;5.17;1.22;;;29.10;54.30;;;;;;1960284;72;21674;-84
2021/12/31 08:45:57;;;;;;;2.27;1.10;;;29.10;54.80;;;;;;1961801;73;21147;-84
2021/12/31 08:48:28;;;;;;;3.72;1.20;;;29.00;54.50;;;;;;1950874;72;21146;-83
2021/12/31 08:50:58;;;;;;;4.92;1.30;;;29.00;54.70;;;;;;1943431;72;21060;-83
2021/12/31 08:53:29;;;;;;;3.22;1.70;;;29.00;54.40;;;;;;1911193;74;21673;-83
2021/12/31 08:56:00;;;;;;;2.75;1.47;;;28.90;54.70;;;;;;1940602;72;21500;-84
2021/12/31 08:58:30;;;;;;;4.58;1.45;;;28.90;54.80;;;;;;1940775;72;21178;-83
2021/12/31 09:01:01;;;;;;;2.70;1.47;;;28.90;54.80;;;;;;1934427;73;21136;-82
2021/12/31 09:03:31;;;;;;;2.72;1.30;;;28.90;55.00;;;;;;1943783;73;21131;-84
2021/12/31 09:06:02;;;;;;;2.55;1.02;;;28.90;55.60;;;;;;1942798;73;21115;-83
2021/12/31 09:08:34;;;;;;;2.40;1.42;;;28.90;55.10;;;;;;1943446;73;21092;-84
2021/12/31 09:11:05;;;;;;;3.52;1.50;;;28.90;55.10;;;;;;1944885;73;21151;-84
2021/12/31 09:13:35;;;;;;;3.45;1.40;;;28.80;55.00;;;;;;1940930;73;21205;-83
2021/12/31 09:16:06;;;;;;;5.72;1.85;;;28.80;55.30;;;;;;1948200;72;21189;-84
2021/12/31 09:18:37;;;;;;;2.87;1.62;;;28.80;55.50;;;;;;1936865;73;21268;-82
2021/12/31 09:21:07;;;;;;;5.03;1.05;;;28.70;55.50;;;;;;1941069;72;21144;-82
2021/12/31 09:23:38;;;;;;;4.75;1.22;;;28.70;55.60;;;;;;1923585;73;21224;-83
2021/12/31 09:26:09;;;;;;;3.35;1.37;;;28.60;55.60;;;;;;1933129;72;21579;-83
2021/12/31 09:28:39;;;;;;;4.12;1.40;;;28.60;55.60;;;;;;1932396;72;21508;-84
2021/12/31 09:31:12;;;;;;;3.75;0.90;;;28.60;56.60;;;;;;1941997;72;21677;-83
2021/12/31 09:33:49;;;;;;;2.30;0.98;;;28.50;55.70;;;;;;1950420;72;21080;-84
2021/12/31 09:36:17;;;;;;;2.35;1.17;;;28.50;56.00;;;;;;1949697;72;21143;-84
2021/12/31 09:38:51;;;;;;;3.30;1.45;;;28.40;56.10;;;;;;1951315;72;21152;-84
2021/12/31 09:41:22;;;;;;;3.15;1.25;;;28.40;56.20;;;;;;1919691;73;21580;-84
2021/12/31 09:43:53;;;;;;;4.10;1.35;;;28.40;56.50;;;;;;1910267;73;21188;-83
2021/12/31 09:46:24;;;;;;;3.60;1.22;;;28.40;56.40;;;;;;1908436;73;21124;-83
2021/12/31 09:48:54;;;;;;;4.28;1.32;;;28.30;56.30;;;;;;1909103;74;21162;-84
2021/12/31 09:51:27;;;;;;;5.42;1.75;;;28.30;56.50;;;;;;1898560;74;21171;-83
2021/12/31 09:53:59;;;;;;;2.20;1.27;;;28.30;56.70;;;;;;1944508;72;21145;-83
2021/12/31 09:56:34;;;;;;;3.33;1.40;;;28.20;56.90;;;;;;1945809;73;21085;-84
2021/12/31 09:59:03;;;;;;;4.85;1.35;;;28.20;57.10;;;;;;1943520;73;21118;-83
2021/12/31 10:01:33;;;;;;;3.62;1.55;;;28.10;57.80;;;;;;1946152;73;21131;-83
2021/12/31 10:04:05;;;;;;;2.70;1.30;;;28.10;57.10;;;;;;1948147;73;21640;-84
2021/12/31 10:06:35;;;;;;;8.88;2.42;;;28.00;57.20;;;;;;1944065;72;21167;-84
2021/12/31 10:09:06;;;;;;;5.80;1.50;;;28.00;57.30;;;;;;1934375;72;21099;-84
2021/12/31 10:11:38;;;;;;;6.05;1.22;;;27.90;57.00;;;;;;1951100;73;21592;-83
2021/12/31 10:14:09;;;;;;;6.35;1.30;;;27.90;57.00;;;;;;1936404;74;21085;-83
2021/12/31 10:16:41;;;;;;;3.45;1.67;;;27.80;57.10;;;;;;1931106;72;21174;-84
2021/12/31 10:19:11;;;;;;;5.12;1.90;;;27.80;57.40;;;;;;1947089;72;21115;-84
2021/12/31 10:21:43;;;;;;;3.95;1.70;;;27.80;57.40;;;;;;1958611;72;21124;-84
2021/12/31 10:24:16;;;;;;;7.90;1.87;;;27.70;57.50;;;;;;1957435;72;21157;-84
2021/12/31 10:26:52;;;;;;;3.15;2.00;;;27.70;57.60;;;;;;1938581;72;21223;-86
2021/12/31 10:29:43;;;;;;;3.40;1.37;;;27.70;57.80;;;;;;1942522;72;21189;-83
2021/12/31 10:32:18;;;;;;;2.87;1.65;;;27.60;57.80;;;;;;1950691;73;21167;-85
2021/12/31 10:34:49;;;;;;;3.08;1.65;;;27.60;57.80;;;;;;1949144;72;21131;-83
2021/12/31 10:37:24;;;;;;;4.47;1.65;;;27.50;57.90;;;;;;1946564;72;21555;-84
2021/12/31 10:40:00;;;;;;;3.05;1.60;;;27.50;58.00;;;;;;1965906;72;21237;-84
2021/12/31 10:42:37;;;;;;;3.58;1.55;;;27.40;58.20;;;;;;1971481;72;21205;-83
2021/12/31 10:45:09;;;;;;;3.45;1.77;;;27.40;58.30;;;;;;1965956;72;21661;-84
2021/12/31 10:47:49;;;;;;;3.52;1.77;;;27.30;58.40;;;;;;1964845;72;21136;-83
2021/12/31 10:50:19;;;;;;;6.00;1.85;;;27.30;58.50;;;;;;1972410;72;21179;-84
2021/12/31 10:52:56;;;;;;;3.50;1.90;;;27.30;58.60;;;;;;1955429;72;21044;-83
2021/12/31 10:55:29;;;;;;;6.62;2.40;;;27.20;58.60;;;;;;1965041;72;21480;-83
2021/12/31 10:58:02;;;;;;;4.40;1.80;;;27.20;58.70;;;;;;1957491;72;21205;-84
2021/12/31 11:00:36;;;;;;;4.40;2.10;;;27.10;58.80;;;;;;1951723;72;21693;-83
2021/12/31 11:03:08;;;;;;;5.53;2.35;;;27.10;58.80;;;;;;1965501;72;21568;-84
2021/12/31 11:05:39;;;;;;;5.83;2.00;;;27.10;58.90;;;;;;1946893;72;21197;-83
2021/12/31 11:08:13;;;;;;;5.53;2.30;;;27.10;59.10;;;;;;1962527;72;21139;-84
2021/12/31 11:10:42;;;;;;;6.90;2.30;;;27.10;59.00;;;;;;1955748;72;21476;-83
2021/12/31 11:13:17;;;;;;;4.17;2.35;;;27.10;59.10;;;;;;1942817;72;21127;-83
2021/12/31 11:15:54;;;;;;;6.65;2.40;;;27.10;59.20;;;;;;1963402;72;21584;-82
2021/12/31 11:18:24;;;;;;;7.22;2.47;;;27.00;59.30;;;;;;1952408;72;21092;-83
2021/12/31 11:20:57;;;;;;;4.80;2.20;;;27.00;59.30;;;;;;1968589;72;21076;-83
2021/12/31 11:23:30;;;;;;;6.00;2.30;;;26.90;59.40;;;;;;1958896;72;21599;-82
2021/12/31 11:26:01;;;;;;;5.28;2.20;;;26.90;59.50;;;;;;1952544;72;21132;-82
2021/12/31 11:28:34;;;;;;;5.20;3.47;;;26.90;59.70;;;;;;1947908;72;21143;-82
2021/12/31 11:31:07;;;;;;;5.60;2.87;;;26.90;59.70;;;;;;1969357;72;21128;-82
2021/12/31 11:33:40;;;;;;;5.70;2.62;;;26.80;59.70;;;;;;1948930;72;21084;-83
2021/12/31 11:36:11;;;;;;;7.50;3.35;;;26.80;59.90;;;;;;1944903;72;21547;-84
2021/12/31 11:38:44;;;;;;;6.10;3.27;;;26.80;59.90;;;;;;1953941;72;21591;-81
2021/12/31 11:41:17;;;;;;;7.33;3.47;;;26.70;59.90;;;;;;1963906;72;21130;-82
2021/12/31 11:43:51;;;;;;;9.78;6.08;;;26.70;60.00;;;;;;1943392;72;21193;-82
2021/12/31 11:46:22;;;;;;;10.82;7.12;;;26.70;60.20;;;;;;1938132;72;21552;-82
2021/12/31 11:48:54;;;;;;;11.03;7.30;;;26.70;60.20;;;;;;1907434;74;21141;-83
2021/12/31 11:51:33;;;;;;;15.18;8.23;;;26.60;60.30;;;;;;1933490;73;21160;-82
2021/12/31 11:53:58;;;;;;;15.80;8.73;;;26.60;60.50;;;;;;1925118;72;21119;-82
2021/12/31 11:56:31;;;;;;;14.78;8.93;;;26.60;60.70;;;;;;1930817;72;21172;-82
2021/12/31 11:59:04;;;;;;;15.23;9.25;;;26.50;60.80;;;;;;1926382;72;21570;-82
2021/12/31 12:01:37;;;;;;;13.95;8.45;;;26.50;61.10;;;;;;1943480;73;21242;-82
2021/12/31 12:04:11;;;;;;;11.88;8.33;;;26.50;61.30;;;;;;1926284;72;21189;-82
2021/12/31 12:06:44;;;;;;;14.18;7.75;;;26.40;61.40;;;;;;1914335;74;21200;-81
2021/12/31 12:09:14;;;;;;;11.50;6.83;;;26.40;61.40;;;;;;1936426;72;21221;-80
2021/12/31 12:11:47;;;;;;;11.20;6.17;;;26.40;61.80;;;;;;1927616;72;21221;-82
2021/12/31 12:14:20;;;;;;;11.03;5.10;;;26.30;61.80;;;;;;1966440;72;21155;-81
2021/12/31 12:16:54;;;;;;;11.57;5.80;;;26.20;62.20;;;;;;1955410;72;21072;-81
2021/12/31 12:19:26;;;;;;;9.65;4.90;;;26.20;62.20;;;;;;1959159;72;21145;-80
2021/12/31 12:21:57;;;;;;;9.78;4.80;;;26.20;62.50;;;;;;1936137;74;21162;-80
2021/12/31 12:24:27;;;;;;;9.00;4.53;;;26.20;62.70;;;;;;1949136;73;21139;-79
2021/12/31 12:27:00;;;;;;;8.65;4.40;;;26.20;62.90;;;;;;1955609;72;21669;-82
2021/12/31 12:29:31;;;;;;;8.63;4.20;;;26.10;62.90;;;;;;1947891;72;21185;-81
2021/12/31 12:32:04;;;;;;;6.28;3.40;;;26.10;64.10;;;;;;1942254;73;22303;-81
2021/12/31 12:34:35;;;;;;;5.05;3.65;;;26.10;62.90;;;;;;1916361;73;21220;-81
2021/12/31 12:37:06;;;;;;;6.35;3.80;;;26.10;63.10;;;;;;1930665;74;21556;-80
2021/12/31 12:39:37;;;;;;;4.97;3.15;;;26.10;63.00;;;;;;1916085;74;21648;-80
2021/12/31 12:42:12;;;;;;;6.60;3.20;;;26.10;63.00;;;;;;1943170;72;21173;-81
2021/12/31 12:44:45;;;;;;;5.90;3.50;;;26.00;62.90;;;;;;1967078;72;21524;-82
2021/12/31 12:47:18;;;;;;;5.95;3.30;;;26.00;63.00;;;;;;1949860;72;21127;-82
2021/12/31 12:49:51;;;;;;;7.00;3.35;;;26.00;63.30;;;;;;1962753;72;21099;-80
2021/12/31 12:52:22;;;;;;;7.72;3.40;;;26.00;63.30;;;;;;1959500;72;21225;-82
2021/12/31 12:54:55;;;;;;;5.85;3.35;;;26.00;63.20;;;;;;1963907;72;21103;-82
2021/12/31 12:57:26;;;;;;;5.17;3.22;;;25.90;63.40;;;;;;1945276;72;21202;-81
2021/12/31 12:59:57;;;;;;;7.30;3.33;;;25.90;63.20;;;;;;1955236;72;21671;-82
2021/12/31 13:02:30;;;;;;;5.50;3.25;;;25.90;64.00;;;;;;1957084;72;21159;-82
2021/12/31 13:05:03;;;;;;;6.67;3.30;;;25.90;63.70;;;;;;1958609;72;21069;-83
2021/12/31 13:07:34;;;;;;;9.83;4.33;;;25.90;63.90;;;;;;1972889;72;21519;-82
2021/12/31 13:10:07;;;;;;;10.13;3.17;;;25.80;63.80;;;;;;1967728;72;21127;-81
2021/12/31 13:12:37;;;;;;;4.53;3.02;;;25.80;64.00;;;;;;1961271;72;21044;-82